createdAt,value
2023-05-11T00:01:23.255Z,13.25
2023-05-11T00:03:55.965Z,9.65
2023-05-11T00:06:29.024Z,12.00
2023-05-11T00:09:01.468Z,11.40
2023-05-11T00:11:33.761Z,13.40
2023-05-11T00:14:06.126Z,11.32
2023-05-11T00:16:38.382Z,11.30
2023-05-11T00:19:10.785Z,11.38
2023-05-11T00:21:43.807Z,10.75
2023-05-11T00:24:16.085Z,13.55
2023-05-11T00:26:48.390Z,11.02
2023-05-11T00:29:20.653Z,10.95
2023-05-11T00:31:53.015Z,10.25
2023-05-11T00:34:26.071Z,12.30
2023-05-11T00:37:00.008Z,12.60
2023-05-11T00:39:37.930Z,14.50
2023-05-11T00:42:10.812Z,10.50
2023-05-11T00:44:43.566Z,9.98
2023-05-11T00:47:15.884Z,12.45
2023-05-11T00:49:49.871Z,11.57
2023-05-11T00:52:22.909Z,14.23
2023-05-11T00:54:55.310Z,11.30
2023-05-11T00:57:27.693Z,9.18
2023-05-11T01:00:02.251Z,10.43
2023-05-11T01:02:35.195Z,10.05
2023-05-11T01:05:08.577Z,13.30
2023-05-11T01:07:48.729Z,11.77
2023-05-11T01:10:29.638Z,12.13
2023-05-11T01:13:10.340Z,11.85
2023-05-11T01:15:47.936Z,9.63
2023-05-11T01:18:29.828Z,13.13
2023-05-11T01:21:06.613Z,12.70
2023-05-11T01:24:07.564Z,10.95
2023-05-11T01:26:54.682Z,10.07
2023-05-11T01:29:46.446Z,10.50
2023-05-11T01:32:21.942Z,14.23
2023-05-11T01:35:03.304Z,12.95
2023-05-11T01:37:40.814Z,9.30
2023-05-11T01:40:16.703Z,10.00
2023-05-11T01:42:54.434Z,10.65
2023-05-11T01:45:29.137Z,9.85
2023-05-11T01:48:06.673Z,10.70
2023-05-11T01:50:39.635Z,8.88
2023-05-11T01:53:13.440Z,11.40
2023-05-11T01:55:47.381Z,12.35
2023-05-11T01:58:24.145Z,10.35
2023-05-11T02:00:59.159Z,10.73
2023-05-11T02:03:34.862Z,13.32
2023-05-11T02:06:10.264Z,13.18
2023-05-11T02:08:44.701Z,14.98
2023-05-11T02:11:18.016Z,11.80
2023-05-11T02:13:53.643Z,10.63
2023-05-11T02:16:28.919Z,10.07
2023-05-11T02:19:02.949Z,10.70
2023-05-11T02:21:37.053Z,11.38
2023-05-11T02:24:10.411Z,11.18
2023-05-11T02:26:42.996Z,10.32
2023-05-11T02:29:15.677Z,12.18
2023-05-11T02:31:52.548Z,13.57
2023-05-11T02:34:29.240Z,10.65
2023-05-11T02:37:06.814Z,11.57
2023-05-11T02:39:45.894Z,11.48
2023-05-11T02:42:20.640Z,9.98
2023-05-11T02:44:57.758Z,9.82
2023-05-11T02:47:33.748Z,12.73
2023-05-11T02:50:09.281Z,8.98
2023-05-11T02:52:47.142Z,13.57
2023-05-11T02:55:20.824Z,9.80
2023-05-11T02:57:53.756Z,10.60
2023-05-11T03:00:26.245Z,10.55
2023-05-11T03:02:59.124Z,11.02
2023-05-11T03:05:32.180Z,10.43
2023-05-11T03:08:04.755Z,9.27
2023-05-11T03:10:39.940Z,12.27
2023-05-11T03:13:12.644Z,11.35
2023-05-11T03:15:45.480Z,8.90
2023-05-11T03:18:18.829Z,8.20
2023-05-11T03:20:52.163Z,8.68
2023-05-11T03:23:25.609Z,7.70
2023-05-11T03:25:59.847Z,11.07
2023-05-11T03:28:35.084Z,10.43
2023-05-11T03:31:11.706Z,7.83
2023-05-11T03:33:44.068Z,9.48
2023-05-11T03:36:17.912Z,9.02
2023-05-11T03:38:53.071Z,10.32
2023-05-11T03:41:28.253Z,9.60
2023-05-11T03:44:04.942Z,8.95
2023-05-11T03:46:39.667Z,9.88
2023-05-11T03:49:15.130Z,12.20
2023-05-11T03:51:48.698Z,10.52
2023-05-11T03:54:21.084Z,7.72
2023-05-11T03:56:55.719Z,7.63
2023-05-11T03:59:28.096Z,12.98
2023-05-11T04:02:00.904Z,9.80
2023-05-11T04:04:33.367Z,9.48
2023-05-11T04:07:06.372Z,10.95
2023-05-11T04:09:38.813Z,10.27
2023-05-11T04:12:11.201Z,13.45
2023-05-11T04:14:43.753Z,9.15
2023-05-11T04:17:15.995Z,8.70
2023-05-11T04:19:50.057Z,9.90
2023-05-11T04:22:23.684Z,9.35
2023-05-11T04:24:56.332Z,11.75
2023-05-11T04:27:32.020Z,10.05
2023-05-11T04:30:05.395Z,12.32
2023-05-11T04:32:38.265Z,10.68
2023-05-11T04:35:10.813Z,15.35
2023-05-11T04:37:45.299Z,11.57
2023-05-11T04:40:18.293Z,8.32
2023-05-11T04:42:50.798Z,14.15
2023-05-11T04:45:24.956Z,12.13
2023-05-11T04:47:57.680Z,11.93
2023-05-11T04:50:31.434Z,12.82
2023-05-11T04:53:04.360Z,11.35
2023-05-11T04:55:36.985Z,10.63
2023-05-11T04:58:10.023Z,16.05
2023-05-11T05:00:42.441Z,10.85
2023-05-11T05:03:17.361Z,11.38
2023-05-11T05:05:50.167Z,10.00
2023-05-11T05:08:23.158Z,16.25
2023-05-11T05:10:55.498Z,10.60
2023-05-11T05:13:27.782Z,8.02
2023-05-11T05:16:00.048Z,13.05
2023-05-11T05:18:33.173Z,14.70
2023-05-11T05:21:05.966Z,13.45
2023-05-11T05:23:39.062Z,12.25
2023-05-11T05:26:11.763Z,11.07
2023-05-11T05:28:45.399Z,12.80
2023-05-11T05:31:17.874Z,10.07
2023-05-11T05:33:50.303Z,13.48
2023-05-11T05:36:23.590Z,13.07
2023-05-11T05:38:56.565Z,11.65
2023-05-11T05:41:29.127Z,16.92
2023-05-11T05:44:02.046Z,10.70
2023-05-11T05:46:34.769Z,12.48
2023-05-11T05:49:07.286Z,12.20
2023-05-11T05:51:40.422Z,11.48
2023-05-11T05:54:13.593Z,14.38
2023-05-11T05:56:45.947Z,11.45
2023-05-11T05:59:20.416Z,11.40
2023-05-11T06:01:52.814Z,11.32
2023-05-11T06:04:26.260Z,11.38
2023-05-11T06:07:00.099Z,12.95
2023-05-11T06:09:33.357Z,10.00
2023-05-11T06:12:06.122Z,14.13
2023-05-11T06:14:41.215Z,14.40
2023-05-11T06:17:13.645Z,11.30
2023-05-11T06:19:46.564Z,13.07
2023-05-11T06:22:20.390Z,12.30
2023-05-11T06:24:53.844Z,11.02
2023-05-11T06:27:27.068Z,10.07
2023-05-11T06:30:02.433Z,14.40
2023-05-11T06:32:39.606Z,11.05
2023-05-11T06:35:13.020Z,13.80
2023-05-11T06:37:45.445Z,10.63
2023-05-11T06:40:18.916Z,13.55
2023-05-11T06:42:51.629Z,12.35
2023-05-11T06:45:24.011Z,10.70
2023-05-11T06:47:56.467Z,11.65
2023-05-11T06:50:29.090Z,13.68
2023-05-11T06:53:01.961Z,11.32
2023-05-11T06:55:35.913Z,11.55
2023-05-11T06:58:08.185Z,11.43
2023-05-11T07:00:40.510Z,10.93
2023-05-11T07:03:13.045Z,13.48
2023-05-11T07:05:45.384Z,13.80
2023-05-11T07:08:17.867Z,11.13
2023-05-11T07:10:51.462Z,10.25
2023-05-11T07:13:25.160Z,13.73
2023-05-11T07:15:57.896Z,10.57
2023-05-11T07:18:30.911Z,13.43
2023-05-11T07:21:03.505Z,15.10
2023-05-11T07:23:35.857Z,12.50
2023-05-11T07:26:09.109Z,9.82
2023-05-11T07:28:41.625Z,11.70
2023-05-11T07:31:14.071Z,11.30
2023-05-11T07:33:46.570Z,11.75
2023-05-11T07:36:18.956Z,13.15
2023-05-11T07:38:51.302Z,13.68
2023-05-11T07:41:26.124Z,12.20
2023-05-11T07:44:00.830Z,15.13
2023-05-11T07:46:33.153Z,16.10
2023-05-11T07:49:17.324Z,11.77
2023-05-11T07:51:55.148Z,11.95
2023-05-11T07:54:27.438Z,13.13
2023-05-11T07:57:01.487Z,15.50
2023-05-11T07:59:33.834Z,13.55
2023-05-11T08:02:07.495Z,12.00
2023-05-11T08:04:39.997Z,11.75
2023-05-11T08:07:12.301Z,15.02
2023-05-11T08:09:44.832Z,14.00
2023-05-11T08:12:17.835Z,12.63
2023-05-11T08:14:50.122Z,12.77
2023-05-11T08:17:22.452Z,10.73
2023-05-11T08:19:54.720Z,11.88
2023-05-11T08:22:27.220Z,14.38
2023-05-11T08:24:59.501Z,12.88
2023-05-11T08:27:32.517Z,13.05
2023-05-11T08:30:05.997Z,12.77
2023-05-11T08:35:15.977Z,12.23
2023-05-11T08:37:48.312Z,11.65
2023-05-11T08:40:23.494Z,10.73
2023-05-11T08:42:56.842Z,14.43
2023-05-11T08:45:31.480Z,12.27
2023-05-11T08:48:05.147Z,12.60
2023-05-11T08:50:37.575Z,12.32
2023-05-11T08:53:10.000Z,11.57
2023-05-11T08:55:43.362Z,11.43
2023-05-11T08:58:21.470Z,10.23
2023-05-11T09:00:54.238Z,13.93
2023-05-11T09:03:29.253Z,14.02
2023-05-11T09:06:04.899Z,13.95
2023-05-11T09:08:38.139Z,11.07
2023-05-11T09:11:11.222Z,15.52
2023-05-11T09:13:53.785Z,13.40
2023-05-11T09:16:36.612Z,14.38
2023-05-11T09:19:14.489Z,10.88
2023-05-11T09:21:47.401Z,11.00
2023-05-11T09:24:20.377Z,11.93
2023-05-11T09:27:06.512Z,14.80
2023-05-11T09:29:39.473Z,13.90
2023-05-11T09:32:11.940Z,11.07
2023-05-11T09:34:44.449Z,11.85
2023-05-11T09:37:17.561Z,11.80
2023-05-11T09:42:31.087Z,9.43
2023-05-11T09:45:05.020Z,13.68
2023-05-11T09:47:39.476Z,10.20
2023-05-11T09:50:18.712Z,10.85
2023-05-11T09:52:58.341Z,10.50
2023-05-11T09:55:30.742Z,11.88
2023-05-11T09:58:03.891Z,10.70
2023-05-11T10:00:50.291Z,12.23
2023-05-11T10:03:24.953Z,10.60
2023-05-11T10:05:58.904Z,10.02
2023-05-11T10:08:33.710Z,9.85
2023-05-11T10:11:08.010Z,11.02
2023-05-11T10:13:41.934Z,9.02
2023-05-11T10:16:16.434Z,8.98
2023-05-11T10:18:49.214Z,9.00
2023-05-11T10:21:22.211Z,8.15
2023-05-11T10:23:57.121Z,9.15
2023-05-11T10:26:31.361Z,11.55
2023-05-11T10:29:04.416Z,7.82
2023-05-11T10:31:37.920Z,8.82
2023-05-11T10:34:11.597Z,8.88
2023-05-11T10:36:45.920Z,8.20
2023-05-11T10:39:18.188Z,8.93
2023-05-11T10:42:03.957Z,8.93
2023-05-11T10:44:51.639Z,11.98
2023-05-11T10:48:00.428Z,10.00
2023-05-11T10:50:47.558Z,8.43
2023-05-11T10:53:40.086Z,9.30
2023-05-11T10:56:31.520Z,8.25
2023-05-11T10:59:37.335Z,11.70
2023-05-11T11:02:10.095Z,9.65
2023-05-11T11:04:45.522Z,10.00
2023-05-11T11:07:19.120Z,10.45
2023-05-11T11:09:54.162Z,8.57
2023-05-11T11:12:28.772Z,8.25
2023-05-11T11:15:02.975Z,11.15
2023-05-11T11:17:36.041Z,9.60
2023-05-11T11:20:30.208Z,8.05
2023-05-11T11:23:02.543Z,8.50
2023-05-11T11:25:52.278Z,11.32
2023-05-11T11:31:25.237Z,8.25
2023-05-11T11:34:00.347Z,8.35
2023-05-11T11:37:05.020Z,8.93
2023-05-11T11:39:49.388Z,7.57
2023-05-11T11:42:41.296Z,7.97
2023-05-11T11:45:30.843Z,6.65
2023-05-11T11:48:12.418Z,7.90
2023-05-11T11:50:47.147Z,7.97
2023-05-11T11:54:05.686Z,6.70
2023-05-11T11:56:40.607Z,7.00
2023-05-11T11:59:14.488Z,6.25
2023-05-11T12:01:51.767Z,6.43
2023-05-11T12:04:55.486Z,8.02
2023-05-11T12:07:33.238Z,7.18
2023-05-11T12:10:06.323Z,7.35
2023-05-11T12:12:40.285Z,7.30
2023-05-11T12:15:23.417Z,7.97
2023-05-11T12:17:56.221Z,7.90
2023-05-11T12:20:28.956Z,6.85
2023-05-11T12:23:01.463Z,11.20
2023-05-11T12:25:33.819Z,7.20
2023-05-11T12:28:06.823Z,5.82
2023-05-11T12:30:39.109Z,7.32
2023-05-11T12:33:14.885Z,7.47
2023-05-11T12:35:51.877Z,8.52
2023-05-11T12:38:24.180Z,7.60
2023-05-11T12:40:56.497Z,8.18
2023-05-11T12:43:29.615Z,7.25
2023-05-11T12:46:02.980Z,9.35
2023-05-11T12:48:35.528Z,10.10
2023-05-11T12:51:07.887Z,8.25
2023-05-11T12:53:41.190Z,7.55
2023-05-11T12:56:13.514Z,9.85
2023-05-11T12:58:46.520Z,10.82
2023-05-11T13:01:24.384Z,9.13
2023-05-11T13:03:56.872Z,11.50
2023-05-11T13:06:29.460Z,9.43
2023-05-11T13:09:02.290Z,8.65
2023-05-11T13:11:34.519Z,9.10
2023-05-11T13:14:16.465Z,7.65
2023-05-11T13:16:53.621Z,9.77
2023-05-11T13:19:31.438Z,7.47
2023-05-11T13:22:04.097Z,8.93
2023-05-11T13:24:36.473Z,8.32
2023-05-11T13:27:08.804Z,7.40
2023-05-11T13:29:41.745Z,7.90
2023-05-11T13:32:14.117Z,10.27
2023-05-11T13:34:46.515Z,10.40
2023-05-11T13:37:18.817Z,8.82
2023-05-11T13:39:51.122Z,9.65
2023-05-11T13:42:23.649Z,9.82
2023-05-11T13:44:56.614Z,7.95
2023-05-11T13:47:28.946Z,11.77
2023-05-11T13:50:02.073Z,7.70
2023-05-11T13:52:34.973Z,7.18
2023-05-11T13:55:08.174Z,9.60
2023-05-11T13:57:40.520Z,7.72
2023-05-11T14:00:15.078Z,7.15
2023-05-11T14:02:49.811Z,6.53
2023-05-11T14:05:22.615Z,7.93
2023-05-11T14:07:55.411Z,9.25
2023-05-11T14:10:27.813Z,8.35
2023-05-11T14:13:00.928Z,9.50
2023-05-11T14:15:34.215Z,9.70
2023-05-11T14:18:07.448Z,8.25
2023-05-11T14:20:41.482Z,8.05
2023-05-11T14:23:16.880Z,7.32
2023-05-11T14:25:49.313Z,9.48
2023-05-11T14:28:21.689Z,9.30
2023-05-11T14:30:55.527Z,17.25
2023-05-11T14:33:27.921Z,7.85
2023-05-11T14:36:00.382Z,7.93
2023-05-11T14:38:32.824Z,7.43
2023-05-11T14:41:05.402Z,6.68
2023-05-11T14:43:40.355Z,8.38
2023-05-11T14:46:13.424Z,7.93
2023-05-11T14:48:45.856Z,8.52
2023-05-11T14:51:18.287Z,7.75
2023-05-11T14:53:50.961Z,9.82
2023-05-11T14:56:23.472Z,6.82
2023-05-11T14:58:55.854Z,5.93
2023-05-11T15:01:30.238Z,6.20
2023-05-11T15:04:03.482Z,6.50
2023-05-11T15:06:35.906Z,7.05
2023-05-11T15:09:08.423Z,19.45
2023-05-11T15:11:40.896Z,8.02
2023-05-11T15:14:13.241Z,15.10
2023-05-11T15:16:46.506Z,6.78
2023-05-11T15:19:18.842Z,8.32
2023-05-11T15:21:51.283Z,24.20
2023-05-11T15:24:23.637Z,12.45
2023-05-11T15:26:57.230Z,9.95
2023-05-11T15:29:29.637Z,9.77
2023-05-11T15:32:02.802Z,8.18
2023-05-11T15:34:44.314Z,4.53
2023-05-11T15:37:23.604Z,4.95
2023-05-11T15:39:56.042Z,6.57
2023-05-11T15:42:28.506Z,6.75
2023-05-11T15:45:01.101Z,6.57
2023-05-11T15:47:34.186Z,6.82
2023-05-11T15:50:08.780Z,4.78
2023-05-11T15:52:41.317Z,5.78
2023-05-11T15:55:13.705Z,5.20
2023-05-11T15:57:46.063Z,6.55
2023-05-11T16:00:18.942Z,4.18
2023-05-11T16:02:52.448Z,6.03
2023-05-11T16:05:26.238Z,5.20
2023-05-11T16:07:59.090Z,5.50
2023-05-11T16:10:31.785Z,4.35
2023-05-11T16:13:04.614Z,5.13
2023-05-11T16:15:36.973Z,9.45
2023-05-11T16:18:10.233Z,18.92
2023-05-11T16:20:42.746Z,22.02
2023-05-11T16:23:22.601Z,17.52
2023-05-11T16:25:55.729Z,12.07
2023-05-11T16:28:28.073Z,11.18
2023-05-11T16:31:01.445Z,13.88
2023-05-11T16:33:34.648Z,12.02
2023-05-11T16:36:08.970Z,12.35
2023-05-11T16:38:41.402Z,11.18
2023-05-11T16:41:14.042Z,15.10
2023-05-11T16:43:46.995Z,12.35
2023-05-11T16:46:19.370Z,20.05
2023-05-11T16:48:53.030Z,15.18
2023-05-11T16:51:26.271Z,14.98
2023-05-11T16:53:58.739Z,14.27
2023-05-11T16:56:31.840Z,10.93
2023-05-11T16:59:04.434Z,12.50
2023-05-11T17:01:37.233Z,11.95
2023-05-11T17:04:11.335Z,13.68
2023-05-11T17:06:43.863Z,12.85
2023-05-11T17:09:17.144Z,11.35
2023-05-11T17:11:49.757Z,10.77
2023-05-11T17:14:22.209Z,12.98
2023-05-11T17:16:54.529Z,16.10
2023-05-11T17:19:28.607Z,16.73
2023-05-11T17:22:01.556Z,17.13
2023-05-11T17:24:34.687Z,16.50
2023-05-11T17:27:07.189Z,14.18
2023-05-11T17:29:43.208Z,12.80
2023-05-11T17:32:16.507Z,14.90
2023-05-11T17:34:50.644Z,15.23
2023-05-11T17:37:31.224Z,14.82
2023-05-11T17:40:05.824Z,22.02
2023-05-11T17:42:39.116Z,25.65
2023-05-11T17:45:13.305Z,19.10
2023-05-11T17:47:49.511Z,20.30
2023-05-11T17:50:23.347Z,13.80
2023-05-11T17:52:55.835Z,17.00
2023-05-11T17:55:28.766Z,16.27
2023-05-11T17:58:02.125Z,12.43
2023-05-11T18:00:34.791Z,13.27
2023-05-11T18:03:07.993Z,14.38
2023-05-11T18:08:20.494Z,20.70
2023-05-11T18:10:53.143Z,13.65
2023-05-11T18:13:25.694Z,11.80
2023-05-11T18:15:58.974Z,16.27
2023-05-11T18:18:32.250Z,16.23
2023-05-11T18:21:07.407Z,15.00
2023-05-11T18:23:40.738Z,17.95
2023-05-11T18:26:13.416Z,19.58
2023-05-11T18:28:45.998Z,15.90
2023-05-11T18:31:18.546Z,17.25
2023-05-11T18:33:50.919Z,18.08
2023-05-11T18:36:23.951Z,18.15
2023-05-11T18:38:56.306Z,16.73
2023-05-11T18:41:28.760Z,26.55
2023-05-11T18:44:03.028Z,23.05
2023-05-11T18:46:36.306Z,19.52
2023-05-11T18:49:09.589Z,23.52
2023-05-11T18:51:42.718Z,26.25
2023-05-11T18:54:15.068Z,27.42
2023-05-11T18:56:47.433Z,30.23
2023-05-11T18:59:19.758Z,18.27
2023-05-11T19:01:53.048Z,21.00
2023-05-11T19:04:26.275Z,16.42
2023-05-11T19:07:00.538Z,18.75
2023-05-11T19:09:35.037Z,29.75
2023-05-11T19:12:08.270Z,24.60
2023-05-11T19:14:40.663Z,21.67
2023-05-11T19:17:13.719Z,23.55
2023-05-11T19:19:46.249Z,19.00
2023-05-11T19:22:20.661Z,20.27
2023-05-11T19:24:53.732Z,25.27
2023-05-11T19:27:26.332Z,30.65
2023-05-11T19:29:59.439Z,28.30
2023-05-11T19:32:32.055Z,23.90
2023-05-11T19:35:04.642Z,22.65
2023-05-11T19:37:37.666Z,22.10
2023-05-11T19:40:43.851Z,16.05
2023-05-11T19:43:05.790Z,13.30
2023-05-11T19:45:38.469Z,17.98
2023-05-11T19:48:12.091Z,14.40
2023-05-11T19:50:44.868Z,14.32
2023-05-11T19:53:18.610Z,11.13
2023-05-11T19:55:52.168Z,14.88
2023-05-11T19:58:24.697Z,20.50
2023-05-11T20:00:57.814Z,14.55
2023-05-11T20:03:30.724Z,12.43
2023-05-11T20:06:03.303Z,16.23
2023-05-11T20:08:36.618Z,13.40
2023-05-11T20:11:09.727Z,14.23
2023-05-11T20:13:44.031Z,17.38
2023-05-11T20:16:17.322Z,19.20
2023-05-11T20:18:51.456Z,16.77
2023-05-11T20:21:24.005Z,18.60
2023-05-11T20:23:57.699Z,17.17
2023-05-11T20:26:31.577Z,16.42
2023-05-11T20:29:06.058Z,16.83
2023-05-11T20:31:38.450Z,19.38
2023-05-11T20:34:11.165Z,10.63
2023-05-11T20:36:43.508Z,12.38
2023-05-11T20:39:16.793Z,11.93
2023-05-11T20:41:50.202Z,14.20
2023-05-11T20:44:22.729Z,12.27
2023-05-11T20:46:55.070Z,11.93
2023-05-11T20:49:38.295Z,11.70
2023-05-11T20:52:12.960Z,11.48
2023-05-11T20:54:48.292Z,12.45
2023-05-11T20:57:20.722Z,16.27
2023-05-11T21:02:29.799Z,12.57
2023-05-11T21:05:03.231Z,11.00
2023-05-11T21:07:36.997Z,13.27
2023-05-11T21:10:12.023Z,14.43
2023-05-11T21:12:44.888Z,12.75
2023-05-11T21:15:17.650Z,15.57
2023-05-11T21:17:50.429Z,13.85
2023-05-11T21:20:23.308Z,16.30
2023-05-11T21:22:56.044Z,14.82
2023-05-11T21:25:29.114Z,16.02
2023-05-11T21:28:01.484Z,13.65
2023-05-11T21:30:34.018Z,17.65
2023-05-11T21:33:06.508Z,9.57
2023-05-11T21:35:39.039Z,11.40
2023-05-11T21:38:14.272Z,11.73
2023-05-11T21:40:51.169Z,12.43
2023-05-11T21:43:23.537Z,12.45
2023-05-11T21:45:55.917Z,7.53
2023-05-11T21:48:28.537Z,10.15
2023-05-11T21:51:00.895Z,10.40
2023-05-11T21:53:33.434Z,13.27
2023-05-11T21:56:06.757Z,11.32
2023-05-11T21:58:39.112Z,14.00
2023-05-11T22:01:11.609Z,9.98
2023-05-11T22:03:44.001Z,15.88
2023-05-11T22:06:16.442Z,13.13
2023-05-11T22:08:48.775Z,56.03
2023-05-11T22:11:21.983Z,31.02
2023-05-11T22:13:54.313Z,14.85
2023-05-11T22:16:26.684Z,12.98
2023-05-11T22:18:59.075Z,14.50
2023-05-11T22:21:31.477Z,19.75
2023-05-11T22:24:04.355Z,20.17
2023-05-11T22:26:37.499Z,15.52
2023-05-11T22:29:09.854Z,12.93
2023-05-11T22:31:45.263Z,81.47
2023-05-11T22:34:19.507Z,53.70
2023-05-11T22:36:51.816Z,29.25
2023-05-11T22:39:24.142Z,21.80
2023-05-11T22:41:57.330Z,43.78
2023-05-11T22:44:29.688Z,26.10
2023-05-11T22:47:02.060Z,13.57
2023-05-11T22:49:34.505Z,17.75
2023-05-11T22:52:07.407Z,13.70
2023-05-11T22:54:39.770Z,14.43
2023-05-11T22:57:15.415Z,15.02
2023-05-11T22:59:47.778Z,18.80
2023-05-11T23:02:20.498Z,33.10
2023-05-11T23:04:53.193Z,19.08
2023-05-11T23:07:25.467Z,15.77
2023-05-11T23:09:58.103Z,12.48
2023-05-11T23:12:31.342Z,39.47
2023-05-11T23:15:04.434Z,27.83
2023-05-11T23:17:38.591Z,19.48
2023-05-11T23:20:12.252Z,14.23
2023-05-11T23:22:44.628Z,16.02
2023-05-11T23:25:17.088Z,10.63
2023-05-11T23:27:50.342Z,11.55
2023-05-11T23:30:23.152Z,13.30
2023-05-11T23:32:55.718Z,12.23
2023-05-11T23:35:28.069Z,10.07
2023-05-11T23:38:00.438Z,11.48
2023-05-11T23:40:32.832Z,11.30
2023-05-11T23:43:06.128Z,11.77
2023-05-11T23:45:38.468Z,9.88
2023-05-11T23:48:10.923Z,12.65
2023-05-11T23:50:43.271Z,10.43
2023-05-11T23:53:15.581Z,13.02
2023-05-11T23:55:47.950Z,16.88
2023-05-11T23:58:21.003Z,10.90
